| time (UTC) | temp C | wind direction | speed KPH | gust KPH | rain 1hr cm | rain 24hr cm | rain mn cm | humidity % | barometer mb |
| 20260503190041 | 15 | 0 | 0.0 | 0.0 | 0.00 | 0.00 | 0.00 | 83 | 1014.1 |
| 20260503185442 | 15 | 0 | 0.0 | 0.0 | 0.00 | 0.00 | 0.00 | 83 | 1014.1 |
| 20260503184841 | 15 | 0 | 0.0 | 0.0 | 0.00 | 0.00 | 0.00 | 83 | 1014.1 |
| 20260503184241 | 15 | 0 | 0.0 | 0.0 | 0.00 | 0.00 | 0.00 | 83 | 1014.1 |
| 20260503183641 | 15 | 0 | 0.0 | 0.0 | 0.00 | 0.00 | 0.00 | 82 | 1014.1 |
| 20260503183041 | 15 | 0 | 0.0 | 0.0 | 0.00 | 0.00 | 0.00 | 82 | 1014.2 |
| 20260503182442 | 14 | 0 | 0.0 | 0.0 | 0.00 | 0.00 | 0.00 | 82 | 1014.1 |
| 20260503181842 | 14 | 0 | 0.0 | 0.0 | 0.00 | 0.00 | 0.00 | 82 | 1014.1 |
| 20260503181241 | 14 | 0 | 0.0 | 0.0 | 0.00 | 0.00 | 0.00 | 82 | 1014.0 |
| 20260503180642 | 14 | 0 | 0.0 | 0.0 | 0.00 | 0.00 | 0.00 | 82 | 1014.1 |
| 20260503175441 | 14 | 0 | 0.0 | 0.0 | 0.00 | 0.00 | 0.00 | 82 | 1014.2 |
| 20260503174841 | 14 | 0 | 0.0 | 0.0 | 0.00 | 0.00 | 0.00 | 82 | 1014.2 |
| 20260503174241 | 14 | 0 | 0.0 | 0.0 | 0.00 | 0.00 | 0.00 | 82 | 1014.1 |
| 20260503173641 | 14 | 0 | 0.0 | 0.0 | 0.00 | 0.00 | 0.00 | 82 | 1014.1 |
| 20260503173042 | 14 | 0 | 0.0 | 0.0 | 0.00 | 0.00 | 0.00 | 82 | 1014.1 |
| 20260503172441 | 14 | 0 | 0.0 | 0.0 | 0.00 | 0.00 | 0.00 | 82 | 1014.2 |
| 20260503171841 | 14 | 0 | 0.0 | 0.0 | 0.00 | 0.00 | 0.00 | 82 | 1014.2 |
| 20260503171241 | 14 | 0 | 0.0 | 0.0 | 0.00 | 0.00 | 0.00 | 82 | 1014.2 |
| 20260503170641 | 14 | 0 | 0.0 | 0.0 | 0.00 | 0.00 | 0.00 | 82 | 1014.2 |
| 20260503150641 | 15 | 0 | 0.0 | 0.0 | 0.00 | 0.00 | 0.00 | 80 | 1015.3 |
| 20260503130640 | 16 | 0 | 0.0 | 0.0 | 0.00 | 0.00 | 0.00 | 78 | 1016.2 |
| 20260503081240 | 22 | 86 | 3.2 | 9.7 | 0.00 | 0.00 | 0.00 | 64 | 1016.0 |
| 20260503080641 | 22 | 84 | 3.2 | 12.9 | 0.00 | 0.00 | 0.00 | 64 | 1016.0 |
| 20260503072441 | 23 | 86 | 4.8 | 14.5 | 0.00 | 0.00 | 0.00 | 57 | 1015.6 |
| 20260503071840 | 23 | 82 | 4.8 | 12.9 | 0.00 | 0.00 | 0.00 | 56 | 1015.6 |
| 20260503071241 | 23 | 85 | 4.8 | 12.9 | 0.00 | 0.00 | 0.00 | 55 | 1015.5 |
| 20260503070641 | 24 | 85 | 4.8 | 14.5 | 0.00 | 0.00 | 0.00 | 55 | 1015.4 |
| 20260503054841 | 26 | 46 | 6.4 | 16.1 | 0.00 | 0.00 | 0.00 | 51 | 1015.7 |
| 20260503054241 | 26 | 56 | 6.4 | 12.9 | 0.00 | 0.00 | 0.00 | 50 | 1015.8 |
| 20260503053640 | 26 | 64 | 6.4 | 14.5 | 0.00 | 0.00 | 0.00 | 50 | 1015.8 |
| 20260503053041 | 26 | 85 | 4.8 | 14.5 | 0.00 | 0.00 | 0.00 | 51 | 1015.9 |
| 20260503052440 | 25 | 88 | 3.2 | 14.5 | 0.00 | 0.00 | 0.00 | 51 | 1015.8 |
| 20260503051240 | 25 | 67 | 4.8 | 8.0 | 0.00 | 0.00 | 0.00 | 51 | 1016.1 |
| 20260503050641 | 25 | 68 | 4.8 | 8.0 | 0.00 | 0.00 | 0.00 | 52 | 1016.1 |
| 20260503050040 | 25 | 63 | 4.8 | 9.7 | 0.00 | 0.00 | 0.00 | 51 | 1016.2 |
| 20260503045441 | 25 | 44 | 4.8 | 9.7 | 0.00 | 0.00 | 0.00 | 51 | 1016.2 |
| 20260503044241 | 25 | 46 | 3.2 | 14.5 | 0.00 | 0.00 | 0.00 | 51 | 1016.2 |
| 20260503043640 | 25 | 48 | 4.8 | 9.7 | 0.00 | 0.00 | 0.00 | 51 | 1016.3 |
| 20260503043040 | 25 | 28 | 4.8 | 14.5 | 0.00 | 0.00 | 0.00 | 51 | 1016.3 |
| 20260503042441 | 25 | 50 | 6.4 | 16.1 | 0.00 | 0.00 | 0.00 | 51 | 1016.4 |
| 20260503041839 | 25 | 50 | 6.4 | 12.9 | 0.00 | 0.00 | 0.00 | 51 | 1016.4 |
| 20260503041240 | 25 | 57 | 4.8 | 12.9 | 0.00 | 0.00 | 0.00 | 51 | 1016.5 |
| 20260503040640 | 25 | 29 | 4.8 | 12.9 | 0.00 | 0.00 | 0.00 | 52 | 1016.6 |
| 20260503035440 | 25 | 6 | 3.2 | 12.9 | 0.00 | 0.00 | 0.00 | 52 | 1016.7 |
| 20260503034839 | 25 | 346 | 3.2 | 9.7 | 0.00 | 0.00 | 0.00 | 52 | 1016.8 |
| 20260503034240 | 25 | 21 | 3.2 | 9.7 | 0.00 | 0.00 | 0.00 | 52 | 1016.8 |
| 20260503033639 | 25 | 51 | 4.8 | 12.9 | 0.00 | 0.00 | 0.00 | 52 | 1016.9 |
| 20260503033040 | 25 | 42 | 4.8 | 14.5 | 0.00 | 0.00 | 0.00 | 52 | 1017.0 |
| 20260503032440 | 25 | 31 | 4.8 | 14.5 | 0.00 | 0.00 | 0.00 | 53 | 1017.1 |
| 20260503031841 | 25 | 58 | 4.8 | 12.9 | 0.00 | 0.00 | 0.00 | 53 | 1017.1 |
| 20260503031241 | 25 | 56 | 4.8 | 9.7 | 0.00 | 0.00 | 0.00 | 53 | 1017.4 |
| 20260503030640 | 25 | 56 | 4.8 | 9.7 | 0.00 | 0.00 | 0.00 | 53 | 1017.4 |
| 20260503030040 | 25 | 32 | 4.8 | 12.9 | 0.00 | 0.00 | 0.00 | 53 | 1017.5 |
| 20260503025440 | 25 | 32 | 4.8 | 12.9 | 0.00 | 0.00 | 0.00 | 54 | 1017.5 |
| 20260503024840 | 25 | 28 | 4.8 | 12.9 | 0.00 | 0.00 | 0.00 | 55 | 1017.6 |
| 20260503024241 | 25 | 44 | 4.8 | 12.9 | 0.00 | 0.00 | 0.00 | 55 | 1017.8 |
| 20260503023640 | 25 | 46 | 4.8 | 12.9 | 0.00 | 0.00 | 0.00 | 55 | 1018.0 |
| 20260503023040 | 24 | 46 | 4.8 | 12.9 | 0.00 | 0.00 | 0.00 | 55 | 1018.1 |
| 20260503022440 | 24 | 44 | 4.8 | 14.5 | 0.00 | 0.00 | 0.00 | 56 | 1018.2 |
| 20260503021840 | 24 | 32 | 4.8 | 12.9 | 0.00 | 0.00 | 0.00 | 57 | 1018.3 |
| 20260503021239 | 24 | 23 | 4.8 | 12.9 | 0.00 | 0.00 | 0.00 | 56 | 1018.2 |
| 20260503020639 | 23 | 45 | 4.8 | 12.9 | 0.00 | 0.00 | 0.00 | 57 | 1018.5 |
| 20260503020040 | 23 | 70 | 4.8 | 14.5 | 0.00 | 0.00 | 0.00 | 58 | 1018.7 |
| 20260503015440 | 23 | 59 | 3.2 | 14.5 | 0.00 | 0.00 | 0.00 | 59 | 1018.9 |
| 20260503014841 | 23 | 54 | 1.6 | 12.9 | 0.00 | 0.00 | 0.00 | 60 | 1019.1 |
| 20260503014240 | 23 | 21 | 3.2 | 8.0 | 0.00 | 0.00 | 0.00 | 61 | 1019.2 |
| 20260503013640 | 23 | 351 | 4.8 | 14.5 | 0.00 | 0.00 | 0.00 | 61 | 1019.4 |
| 20260503013040 | 23 | 338 | 4.8 | 14.5 | 0.00 | 0.00 | 0.00 | 61 | 1019.5 |
| 20260503012440 | 22 | 11 | 4.8 | 12.9 | 0.00 | 0.00 | 0.00 | 61 | 1019.5 |
| 20260503011840 | 22 | 8 | 4.8 | 12.9 | 0.00 | 0.00 | 0.00 | 61 | 1019.6 |
| 20260503011240 | 22 | 352 | 4.8 | 12.9 | 0.00 | 0.00 | 0.00 | 62 | 1019.7 |
| 20260503010639 | 22 | 340 | 3.2 | 14.5 | 0.00 | 0.00 | 0.00 | 63 | 1019.9 |
| 20260503010040 | 22 | 58 | 1.6 | 14.5 | 0.00 | 0.00 | 0.00 | 65 | 1019.9 |
| 20260503005440 | 21 | 69 | 0.0 | 9.7 | 0.00 | 0.00 | 0.00 | 66 | 1020.0 |
| 20260503004840 | 21 | 67 | 1.6 | 4.8 | 0.00 | 0.00 | 0.00 | 67 | 1020.2 |
| 20260503004241 | 21 | 349 | 1.6 | 6.4 | 0.00 | 0.00 | 0.00 | 68 | 1020.3 |
| 20260503003040 | 21 | 83 | 1.6 | 8.0 | 0.00 | 0.00 | 0.00 | 70 | 1020.3 |
| 20260503002440 | 21 | 312 | 0.0 | 6.4 | 0.00 | 0.00 | 0.00 | 71 | 1020.4 |
| 20260503001840 | 20 | 314 | 0.0 | 1.6 | 0.00 | 0.00 | 0.00 | 73 | 1020.6 |
| 20260503000640 | 20 | 0 | 0.0 | 0.0 | 0.00 | 0.00 | 0.00 | 77 | 1020.5 |
| 20260502235440 | 19 | 313 | 0.0 | 6.4 | 0.00 | 0.00 | 0.00 | 80 | 1020.5 |
| 20260502234840 | 18 | 317 | 0.0 | 6.4 | 0.00 | 0.00 | 0.00 | 81 | 1020.6 |
| 20260502234240 | 18 | 0 | 0.0 | 0.0 | 0.00 | 0.00 | 0.00 | 82 | 1020.6 |
| 20260502233640 | 18 | 0 | 0.0 | 0.0 | 0.00 | 0.00 | 0.00 | 83 | 1020.6 |
| 20260502232440 | 17 | 0 | 0.0 | 0.0 | 0.00 | 0.00 | 0.00 | 84 | 1020.7 |
| 20260502231840 | 17 | 0 | 0.0 | 0.0 | 0.00 | 0.00 | 0.00 | 84 | 1020.8 |
| 20260502231240 | 17 | 0 | 0.0 | 0.0 | 0.00 | 0.00 | 0.00 | 85 | 1021.0 |
| 20260502230640 | 17 | 0 | 0.0 | 0.0 | 0.00 | 0.00 | 0.00 | 85 | 1021.1 |
| 20260502230040 | 16 | 0 | 0.0 | 0.0 | 0.00 | 0.00 | 0.00 | 85 | 1021.1 |
| 20260502225440 | 16 | 0 | 0.0 | 0.0 | 0.00 | 0.00 | 0.00 | 85 | 1021.2 |
| 20260502224841 | 16 | 0 | 0.0 | 0.0 | 0.00 | 0.00 | 0.00 | 85 | 1021.2 |
| 20260502224241 | 16 | 0 | 0.0 | 0.0 | 0.00 | 0.00 | 0.00 | 85 | 1021.2 |
| 20260502223640 | 15 | 0 | 0.0 | 0.0 | 0.00 | 0.00 | 0.00 | 84 | 1021.3 |
| 20260502223039 | 15 | 0 | 0.0 | 0.0 | 0.00 | 0.00 | 0.00 | 85 | 1021.2 |
| 20260502222440 | 15 | 0 | 0.0 | 0.0 | 0.00 | 0.00 | 0.00 | 84 | 1021.4 |
| 20260502221840 | 15 | 0 | 0.0 | 0.0 | 0.00 | 0.00 | 0.00 | 84 | 1021.3 |
| 20260502221240 | 15 | 0 | 0.0 | 0.0 | 0.00 | 0.00 | 0.00 | 84 | 1021.1 |
| 20260502220039 | 14 | 0 | 0.0 | 0.0 | 0.00 | 0.00 | 0.00 | 84 | 1021.0 |
| 20260502215440 | 14 | 0 | 0.0 | 0.0 | 0.00 | 0.00 | 0.00 | 84 | 1021.0 |
| 20260502214840 | 14 | 0 | 0.0 | 0.0 | 0.00 | 0.00 | 0.00 | 84 | 1021.0 |
| 20260502214239 | 13 | 0 | 0.0 | 0.0 | 0.00 | 0.00 | 0.00 | 84 | 1020.7 |
| 20260502213641 | 13 | 0 | 0.0 | 0.0 | 0.00 | 0.00 | 0.00 | 83 | 1020.7 |
| 20260502213041 | 13 | 0 | 0.0 | 0.0 | 0.00 | 0.00 | 0.00 | 83 | 1020.7 |
| 20260502212440 | 13 | 0 | 0.0 | 0.0 | 0.00 | 0.00 | 0.00 | 83 | 1020.6 |
| 20260502211840 | 13 | 0 | 0.0 | 0.0 | 0.00 | 0.00 | 0.00 | 83 | 1020.4 |
| 20260502211240 | 13 | 0 | 0.0 | 0.0 | 0.00 | 0.00 | 0.00 | 83 | 1020.3 |
| 20260502210040 | 13 | 0 | 0.0 | 0.0 | 0.00 | 0.00 | 0.00 | 83 | 1020.3 |
| 20260502205440 | 13 | 0 | 0.0 | 0.0 | 0.00 | 0.00 | 0.00 | 83 | 1020.4 |
| 20260502204839 | 13 | 0 | 0.0 | 0.0 | 0.00 | 0.00 | 0.00 | 83 | 1020.5 |
| 20260502204239 | 13 | 0 | 0.0 | 0.0 | 0.00 | 0.00 | 0.00 | 83 | 1020.3 |
| 20260502203640 | 13 | 0 | 0.0 | 0.0 | 0.00 | 0.00 | 0.00 | 83 | 1020.2 |
| 20260502203040 | 13 | 0 | 0.0 | 0.0 | 0.00 | 0.00 | 0.00 | 83 | 1020.3 |
| 20260502202440 | 13 | 0 | 0.0 | 0.0 | 0.00 | 0.00 | 0.00 | 82 | 1020.2 |
| 20260502201840 | 13 | 0 | 0.0 | 0.0 | 0.00 | 0.00 | 0.00 | 82 | 1020.1 |
| 20260502200640 | 13 | 0 | 0.0 | 0.0 | 0.00 | 0.00 | 0.00 | 83 | 1020.3 |
| 20260502195439 | 14 | 0 | 0.0 | 0.0 | 0.00 | 0.00 | 0.00 | 83 | 1020.3 |
| 20260502194840 | 14 | 0 | 0.0 | 0.0 | 0.00 | 0.00 | 0.00 | 82 | 1020.3 |
| 20260502194240 | 14 | 0 | 0.0 | 0.0 | 0.00 | 0.00 | 0.00 | 82 | 1020.4 |
| 20260502193640 | 14 | 0 | 0.0 | 0.0 | 0.00 | 0.00 | 0.00 | 82 | 1020.2 |
| 20260502192440 | 14 | 0 | 0.0 | 0.0 | 0.00 | 0.00 | 0.00 | 82 | 1020.1 |
| 20260502191840 | 14 | 0 | 0.0 | 0.0 | 0.00 | 0.00 | 0.00 | 82 | 1020.1 |
| 20260502191239 | 14 | 0 | 0.0 | 0.0 | 0.00 | 0.00 | 0.00 | 82 | 1020.1 |
| 20260502190639 | 14 | 0 | 0.0 | 0.0 | 0.00 | 0.00 | 0.00 | 82 | 1020.1 |